createdAt,value
2019-01-17T00:00:45.849Z,15.93
2019-01-17T00:03:22.627Z,15.80
2019-01-17T00:06:01.671Z,17.90
2019-01-17T00:08:39.311Z,11.47
2019-01-17T00:11:20.355Z,12.43
2019-01-17T00:14:07.087Z,14.80
2019-01-17T00:17:06.529Z,9.30
2019-01-17T00:19:50.997Z,10.17
2019-01-17T00:22:44.615Z,12.43
2019-01-17T00:25:41.383Z,14.43
2019-01-17T00:28:25.115Z,15.53
2019-01-17T00:31:02.007Z,12.97
2019-01-17T00:33:48.092Z,12.50
2019-01-17T00:36:45.074Z,15.93
2019-01-17T00:39:31.355Z,11.00
2019-01-17T00:42:25.007Z,12.90
2019-01-17T00:45:12.845Z,13.77
2019-01-17T00:48:04.029Z,13.10
2019-01-17T00:50:44.487Z,13.90
2019-01-17T00:53:32.317Z,14.67
2019-01-17T00:56:30.288Z,13.10
2019-01-17T00:59:13.564Z,17.63
2019-01-17T01:01:59.919Z,13.70
2019-01-17T01:04:44.283Z,11.90
2019-01-17T01:07:30.776Z,17.13
2019-01-17T01:10:13.275Z,10.30
2019-01-17T01:13:07.297Z,18.00
2019-01-17T01:16:00.287Z,13.13
2019-01-17T01:18:48.211Z,10.20
2019-01-17T01:21:33.170Z,9.37
2019-01-17T01:24:22.470Z,10.50
2019-01-17T01:27:22.506Z,10.53
2019-01-17T01:30:18.987Z,10.50
2019-01-17T01:33:24.846Z,12.17
2019-01-17T01:36:03.748Z,9.47
2019-01-17T01:38:45.316Z,10.13
2019-01-17T01:41:48.124Z,12.23
2019-01-17T01:44:39.141Z,10.13
2019-01-17T01:47:17.110Z,9.90
2019-01-17T01:50:20.160Z,13.50
2019-01-17T01:53:05.887Z,10.17
2019-01-17T01:55:35.697Z,9.73
2019-01-17T01:58:05.441Z,9.80
2019-01-17T02:00:34.258Z,9.83
2019-01-17T02:03:03.035Z,12.63
2019-01-17T02:05:31.851Z,8.43
2019-01-17T02:08:00.594Z,8.93
2019-01-17T02:10:29.351Z,11.03
2019-01-17T02:12:58.503Z,9.07
2019-01-17T02:15:27.403Z,7.97
2019-01-17T02:17:56.468Z,8.27
2019-01-17T02:20:25.217Z,9.13
2019-01-17T02:22:54.206Z,10.50
2019-01-17T02:25:23.042Z,10.77
2019-01-17T02:27:51.784Z,6.70
2019-01-17T02:30:20.700Z,6.00
2019-01-17T02:32:49.775Z,7.67
2019-01-17T02:35:18.692Z,5.77
2019-01-17T02:37:47.459Z,10.80
2019-01-17T02:40:16.387Z,5.70
2019-01-17T02:42:45.127Z,6.40
2019-01-17T02:45:14.881Z,7.23
2019-01-17T02:47:43.767Z,7.13
2019-01-17T02:50:12.920Z,8.97
2019-01-17T02:52:41.738Z,6.50
2019-01-17T02:55:10.905Z,6.20
2019-01-17T02:57:39.968Z,8.83
2019-01-17T03:00:12.684Z,6.23
2019-01-17T03:02:41.827Z,4.73
2019-01-17T03:05:10.746Z,5.23
2019-01-17T03:07:39.558Z,6.27
2019-01-17T03:10:14.988Z,6.00
2019-01-17T03:12:43.866Z,7.17
2019-01-17T03:15:12.873Z,5.03
2019-01-17T03:17:42.112Z,5.10
2019-01-17T03:20:12.023Z,6.60
2019-01-17T03:22:40.916Z,7.23
2019-01-17T03:25:10.183Z,6.27
2019-01-17T03:27:39.091Z,5.83
2019-01-17T03:30:14.286Z,6.53
2019-01-17T03:32:43.036Z,7.53
2019-01-17T03:35:12.311Z,5.77
2019-01-17T03:37:41.477Z,5.43
2019-01-17T03:40:13.055Z,5.33
2019-01-17T03:42:41.787Z,5.17
2019-01-17T03:45:10.936Z,4.63
2019-01-17T03:47:39.995Z,5.10
2019-01-17T03:50:11.408Z,4.27
2019-01-17T03:52:40.471Z,4.23
2019-01-17T03:55:10.625Z,3.70
2019-01-17T03:57:39.515Z,4.90
2019-01-17T04:00:11.479Z,3.90
2019-01-17T04:02:40.237Z,4.10
2019-01-17T04:05:09.138Z,4.43
2019-01-17T04:07:38.291Z,3.90
2019-01-17T04:10:08.847Z,5.20
2019-01-17T04:12:37.907Z,5.47
2019-01-17T04:15:07.284Z,4.40
2019-01-17T04:17:36.086Z,3.60
2019-01-17T04:20:06.328Z,4.57
2019-01-17T04:22:35.129Z,3.93
2019-01-17T04:25:04.715Z,4.43
2019-01-17T04:27:33.703Z,4.60
2019-01-17T04:30:02.860Z,5.40
2019-01-17T04:32:31.599Z,3.57
2019-01-17T04:35:00.351Z,3.77
2019-01-17T04:37:29.186Z,3.40
2019-01-17T04:39:57.998Z,4.03
2019-01-17T04:42:26.769Z,6.03
2019-01-17T04:44:55.507Z,3.70
2019-01-17T04:47:24.267Z,3.70
2019-01-17T04:49:53.268Z,4.80
2019-01-17T04:52:22.277Z,2.90
2019-01-17T04:54:51.018Z,2.67
2019-01-17T04:57:20.263Z,2.20
2019-01-17T04:59:49.277Z,3.10
2019-01-17T05:02:18.021Z,3.17
2019-01-17T05:04:46.780Z,2.33
2019-01-17T05:07:15.548Z,3.47
2019-01-17T05:09:44.535Z,3.10
2019-01-17T05:12:13.292Z,2.73
2019-01-17T05:14:42.043Z,3.50
2019-01-17T05:17:10.787Z,2.90
2019-01-17T05:19:40.039Z,3.63
2019-01-17T05:22:08.815Z,2.90
2019-01-17T05:24:37.563Z,3.03
2019-01-17T05:27:06.398Z,3.37
2019-01-17T05:29:35.130Z,3.83
2019-01-17T05:32:03.970Z,2.83
2019-01-17T05:34:39.385Z,2.83
2019-01-17T05:37:03.757Z,2.70
2019-01-17T05:39:32.498Z,4.90
2019-01-17T05:42:01.251Z,5.60
2019-01-17T05:44:30.232Z,3.80
2019-01-17T05:46:58.994Z,2.93
2019-01-17T05:49:27.726Z,2.83
2019-01-17T05:51:56.482Z,3.50
2019-01-17T05:54:25.227Z,3.40
2019-01-17T05:56:54.206Z,3.60
2019-01-17T05:59:23.527Z,3.67
2019-01-17T06:01:52.290Z,3.27
2019-01-17T06:04:21.296Z,3.43
2019-01-17T06:06:50.052Z,3.97
2019-01-17T06:09:18.799Z,4.03
2019-01-17T06:11:47.849Z,6.47
2019-01-17T06:14:16.859Z,3.80
2019-01-17T06:16:45.611Z,4.60
2019-01-17T06:19:14.594Z,3.90
2019-01-17T06:21:43.584Z,4.30
2019-01-17T06:24:12.320Z,4.00
2019-01-17T06:26:41.138Z,4.17
2019-01-17T06:29:10.191Z,6.43
2019-01-17T06:31:39.182Z,5.10
2019-01-17T06:34:07.916Z,3.90
2019-01-17T06:36:36.833Z,4.03
2019-01-17T06:39:07.836Z,4.40
2019-01-17T06:41:36.732Z,3.47
2019-01-17T06:44:05.538Z,4.00
2019-01-17T06:46:34.312Z,5.30
2019-01-17T06:49:03.189Z,3.67
2019-01-17T06:51:32.192Z,3.27
2019-01-17T06:54:00.933Z,3.90
2019-01-17T06:56:29.929Z,3.20
2019-01-17T06:58:58.681Z,2.73
2019-01-17T07:01:27.809Z,7.00
2019-01-17T07:03:56.579Z,2.80
2019-01-17T07:06:25.777Z,3.63
2019-01-17T07:08:54.907Z,5.93
2019-01-17T07:11:23.660Z,4.43
2019-01-17T07:13:52.420Z,7.93
2019-01-17T07:16:21.218Z,3.43
2019-01-17T07:18:50.230Z,2.40
2019-01-17T07:21:18.974Z,2.73
2019-01-17T07:23:48.083Z,2.83
2019-01-17T07:26:16.962Z,4.40
2019-01-17T07:28:45.715Z,6.50
2019-01-17T07:31:14.705Z,4.83
2019-01-17T07:33:43.443Z,4.33
2019-01-17T07:36:12.265Z,5.77
2019-01-17T07:38:41.011Z,6.30
2019-01-17T07:41:09.791Z,5.23
2019-01-17T07:43:38.779Z,3.07
2019-01-17T07:46:07.664Z,5.53
2019-01-17T07:48:36.422Z,4.03
2019-01-17T07:51:05.871Z,4.50
2019-01-17T07:53:34.886Z,3.77
2019-01-17T07:56:04.121Z,4.80
2019-01-17T07:58:32.878Z,3.60
2019-01-17T08:01:01.977Z,2.20
2019-01-17T08:03:31.012Z,2.53
2019-01-17T08:05:59.751Z,3.03
2019-01-17T08:08:28.569Z,4.27
2019-01-17T08:10:57.325Z,4.60
2019-01-17T08:13:26.070Z,3.80
2019-01-17T08:15:55.043Z,3.67
2019-01-17T08:18:23.810Z,2.90
2019-01-17T08:20:52.542Z,3.73
2019-01-17T08:23:21.543Z,3.33
2019-01-17T08:25:54.173Z,8.43
2019-01-17T08:28:21.110Z,3.87
2019-01-17T08:30:49.854Z,2.70
2019-01-17T08:33:18.687Z,4.60
2019-01-17T08:35:47.430Z,4.07
2019-01-17T08:38:16.162Z,3.53
2019-01-17T08:40:45.155Z,3.53
2019-01-17T08:43:14.463Z,2.63
2019-01-17T08:45:43.450Z,2.70
2019-01-17T08:48:12.531Z,3.57
2019-01-17T08:50:41.346Z,2.50
2019-01-17T08:53:10.082Z,1.97
2019-01-17T08:55:39.102Z,2.47
2019-01-17T08:58:08.109Z,2.50
2019-01-17T09:00:36.858Z,3.77
2019-01-17T09:03:05.749Z,2.50
2019-01-17T09:05:34.827Z,2.03
2019-01-17T09:08:03.713Z,2.80
2019-01-17T09:10:32.535Z,2.33
2019-01-17T09:13:01.270Z,3.30
2019-01-17T09:15:32.398Z,2.70
2019-01-17T09:18:01.548Z,4.23
2019-01-17T09:20:30.629Z,3.67
2019-01-17T09:22:59.615Z,1.67
2019-01-17T09:25:28.435Z,5.13
2019-01-17T09:27:57.427Z,3.23
2019-01-17T09:30:26.578Z,2.07
2019-01-17T09:32:55.562Z,2.07
2019-01-17T09:35:24.561Z,3.10
2019-01-17T09:37:53.898Z,6.93
2019-01-17T09:40:22.944Z,2.80
2019-01-17T09:42:51.933Z,3.60
2019-01-17T09:45:21.064Z,5.73
2019-01-17T09:47:49.865Z,3.10
2019-01-17T09:50:20.707Z,5.37
2019-01-17T09:52:49.766Z,5.20
2019-01-17T09:55:18.919Z,2.60
2019-01-17T09:57:47.930Z,2.90
2019-01-17T10:00:19.151Z,2.67
2019-01-17T10:02:48.108Z,3.83
2019-01-17T10:05:17.132Z,2.97
2019-01-17T10:07:46.038Z,3.20
2019-01-17T10:10:16.263Z,3.37
2019-01-17T10:12:45.412Z,4.40
2019-01-17T10:15:20.685Z,3.23
2019-01-17T10:18:24.630Z,3.67
2019-01-17T10:21:15.775Z,4.80
2019-01-17T10:24:16.018Z,4.43
2019-01-17T10:27:10.707Z,3.90
2019-01-17T10:30:04.001Z,2.90
2019-01-17T10:33:22.136Z,3.70
2019-01-17T10:36:11.798Z,3.43
2019-01-17T10:38:58.720Z,2.57
2019-01-17T10:41:56.457Z,4.07
2019-01-17T10:45:02.157Z,3.13
2019-01-17T10:48:08.666Z,4.60
2019-01-17T10:51:11.247Z,2.83
2019-01-17T10:54:11.458Z,3.20
2019-01-17T10:57:51.865Z,3.23
2019-01-17T11:00:53.206Z,4.83
2019-01-17T11:04:00.690Z,3.00
2019-01-17T11:07:10.491Z,3.50
2019-01-17T11:10:05.999Z,5.23
2019-01-17T11:13:13.169Z,4.23
2019-01-17T11:16:23.359Z,3.63
2019-01-17T11:19:16.262Z,4.20
2019-01-17T11:22:22.139Z,5.10
2019-01-17T11:25:07.151Z,8.80
2019-01-17T11:28:17.218Z,3.90
2019-01-17T11:31:27.671Z,4.43
2019-01-17T11:34:39.327Z,4.07
2019-01-17T11:37:49.647Z,3.00
2019-01-17T11:40:58.271Z,2.50
2019-01-17T11:43:57.675Z,2.73
2019-01-17T11:46:58.225Z,3.27
2019-01-17T11:49:52.052Z,5.33
2019-01-17T11:53:02.083Z,4.93
2019-01-17T11:55:51.849Z,2.73
2019-01-17T11:59:01.075Z,3.23
2019-01-17T12:02:09.298Z,2.90
2019-01-17T12:04:37.680Z,4.63
2019-01-17T12:07:09.190Z,3.30
2019-01-17T12:09:38.239Z,8.03
2019-01-17T12:12:07.477Z,2.93
2019-01-17T12:14:36.743Z,3.03
2019-01-17T12:17:05.582Z,4.43
2019-01-17T12:19:34.331Z,3.33
2019-01-17T12:22:03.403Z,2.60
2019-01-17T12:24:32.375Z,2.90
2019-01-17T12:27:01.129Z,2.50
2019-01-17T12:29:29.877Z,3.23
2019-01-17T12:31:58.751Z,4.00
2019-01-17T12:34:27.499Z,2.80
2019-01-17T12:36:56.825Z,3.13
2019-01-17T12:39:25.578Z,6.17
2019-01-17T12:41:54.561Z,3.30
2019-01-17T12:44:23.459Z,3.37
2019-01-17T12:46:52.211Z,3.53
2019-01-17T12:49:21.215Z,4.87
2019-01-17T12:51:49.963Z,5.13
2019-01-17T12:54:18.731Z,6.60
2019-01-17T12:56:53.848Z,2.93
2019-01-17T12:59:18.190Z,3.63
2019-01-17T13:01:46.941Z,3.80
2019-01-17T13:04:16.127Z,3.40
2019-01-17T13:06:44.859Z,3.27
2019-01-17T13:09:13.687Z,4.33
2019-01-17T13:11:42.497Z,3.33
2019-01-17T13:14:11.550Z,6.00
2019-01-17T13:16:40.289Z,3.97
2019-01-17T13:19:09.105Z,6.57
2019-01-17T13:21:37.842Z,2.80
2019-01-17T13:24:06.851Z,2.40
2019-01-17T13:26:36.744Z,2.90
2019-01-17T13:29:05.573Z,3.40
2019-01-17T13:31:34.312Z,4.53
2019-01-17T13:34:03.142Z,3.80
2019-01-17T13:36:32.135Z,3.37
2019-01-17T13:39:01.134Z,2.90
2019-01-17T13:41:29.883Z,3.23
2019-01-17T13:43:58.634Z,2.53
2019-01-17T13:46:27.378Z,2.70
2019-01-17T13:48:56.162Z,2.93
2019-01-17T13:51:24.927Z,2.80
2019-01-17T13:53:53.990Z,3.50
2019-01-17T13:56:22.722Z,3.07
2019-01-17T13:58:51.574Z,2.70
2019-01-17T14:01:20.454Z,3.93
2019-01-17T14:03:49.209Z,4.53
2019-01-17T14:06:18.035Z,3.33
2019-01-17T14:08:46.782Z,2.10
2019-01-17T14:11:16.172Z,2.90
2019-01-17T14:13:45.184Z,1.90
2019-01-17T14:16:14.151Z,2.10
2019-01-17T14:18:43.173Z,1.97
2019-01-17T14:21:12.058Z,2.73
2019-01-17T14:23:40.785Z,2.20
2019-01-17T14:26:09.546Z,2.63
2019-01-17T14:28:38.282Z,3.07
2019-01-17T14:31:07.270Z,3.13
2019-01-17T14:33:36.008Z,3.90
2019-01-17T14:36:05.172Z,7.03
2019-01-17T14:38:33.922Z,7.73
2019-01-17T14:41:02.915Z,4.70
2019-01-17T14:43:31.897Z,5.47
2019-01-17T14:46:00.650Z,3.00
2019-01-17T14:48:29.373Z,3.90
2019-01-17T14:50:58.119Z,4.03
2019-01-17T14:53:26.866Z,4.27
2019-01-17T14:55:55.624Z,6.80
2019-01-17T14:58:24.602Z,6.50
2019-01-17T15:00:53.348Z,6.60
2019-01-17T15:03:23.366Z,5.87
2019-01-17T15:05:52.405Z,4.77
2019-01-17T15:08:21.386Z,9.40
2019-01-17T15:10:50.143Z,4.87
2019-01-17T15:13:18.900Z,3.20
2019-01-17T15:15:47.683Z,3.73
2019-01-17T15:18:16.411Z,2.53
2019-01-17T15:20:45.179Z,3.07
2019-01-17T15:23:14.044Z,2.23
2019-01-17T15:25:43.143Z,2.80
2019-01-17T15:28:11.884Z,3.10
2019-01-17T15:30:41.566Z,2.27
2019-01-17T15:33:10.375Z,2.90
2019-01-17T15:35:39.267Z,2.60
2019-01-17T15:38:08.011Z,4.63
2019-01-17T15:40:37.071Z,2.40
2019-01-17T15:43:05.840Z,1.00
2019-01-17T15:45:34.947Z,1.10
2019-01-17T15:48:04.002Z,2.70
2019-01-17T15:50:32.830Z,6.60
2019-01-17T15:53:03.257Z,1.00
2019-01-17T15:55:32.025Z,1.03
2019-01-17T15:58:01.287Z,1.13
2019-01-17T16:00:31.669Z,1.23
2019-01-17T16:03:00.487Z,8.03
2019-01-17T16:05:29.563Z,1.00
2019-01-17T16:07:58.294Z,0.97
2019-01-17T16:10:27.043Z,1.30
2019-01-17T16:12:56.016Z,1.60
2019-01-17T16:15:26.442Z,1.30
2019-01-17T16:17:55.327Z,2.07
2019-01-17T16:20:24.154Z,1.07
2019-01-17T16:22:53.470Z,2.63
2019-01-17T16:25:22.225Z,1.63
2019-01-17T16:27:53.198Z,2.13
2019-01-17T16:30:29.696Z,1.40
2019-01-17T16:32:58.699Z,1.77
2019-01-17T16:35:27.514Z,1.40
2019-01-17T16:37:56.515Z,1.80
2019-01-17T16:40:25.358Z,1.67
2019-01-17T16:42:54.086Z,2.07
2019-01-17T16:45:23.803Z,2.00
2019-01-17T16:47:52.956Z,2.10
2019-01-17T16:50:23.639Z,2.60
2019-01-17T16:52:52.721Z,1.63
2019-01-17T16:55:21.540Z,1.90
2019-01-17T16:57:50.631Z,1.90
2019-01-17T17:00:25.242Z,2.10
2019-01-17T17:02:54.395Z,1.90
2019-01-17T17:05:23.290Z,2.30
2019-01-17T17:07:52.278Z,2.23
2019-01-17T17:10:21.158Z,2.20
2019-01-17T17:12:50.157Z,2.50
2019-01-17T17:15:18.984Z,2.57
2019-01-17T17:17:47.734Z,3.10
2019-01-17T17:20:18.271Z,3.30
2019-01-17T17:22:47.437Z,4.27
2019-01-17T17:25:16.523Z,6.40
2019-01-17T17:27:45.586Z,3.70
2019-01-17T17:30:16.023Z,3.43
2019-01-17T17:32:45.049Z,4.40
2019-01-17T17:35:14.035Z,4.57
2019-01-17T17:37:43.114Z,4.47
2019-01-17T17:40:22.857Z,3.60
2019-01-17T17:42:51.753Z,5.70
2019-01-17T17:45:20.577Z,4.10
2019-01-17T17:47:49.657Z,4.70
2019-01-17T17:50:19.795Z,3.50
2019-01-17T17:52:48.866Z,5.00
2019-01-17T17:55:17.758Z,4.50
2019-01-17T17:57:47.175Z,4.50
2019-01-17T18:00:23.879Z,4.80
2019-01-17T18:02:53.122Z,4.90
2019-01-17T18:05:21.967Z,3.80
2019-01-17T18:07:51.120Z,4.73
2019-01-17T18:10:20.242Z,4.20
2019-01-17T18:12:49.162Z,5.60
2019-01-17T18:15:19.234Z,4.30
2019-01-17T18:17:48.774Z,4.77
2019-01-17T18:20:17.927Z,4.63
2019-01-17T18:22:46.831Z,4.63
2019-01-17T18:25:15.914Z,5.00
2019-01-17T18:27:44.735Z,4.83
2019-01-17T18:30:16.142Z,9.87
2019-01-17T18:32:45.055Z,4.50
2019-01-17T18:35:14.446Z,6.80
2019-01-17T18:37:43.452Z,6.40
2019-01-17T18:40:14.074Z,4.60
2019-01-17T18:42:42.834Z,4.40
2019-01-17T18:45:13.880Z,3.27
2019-01-17T18:47:42.958Z,3.27
2019-01-17T18:50:14.878Z,4.80
2019-01-17T18:52:43.936Z,5.40
2019-01-17T18:55:13.465Z,5.97
2019-01-17T18:57:42.314Z,3.50
2019-01-17T19:00:22.306Z,2.50
2019-01-17T19:02:51.302Z,1.97
2019-01-17T19:05:20.855Z,3.97
2019-01-17T19:07:49.766Z,4.13
2019-01-17T19:10:19.134Z,5.53
2019-01-17T19:12:48.029Z,5.70
2019-01-17T19:15:21.885Z,2.13
2019-01-17T19:17:50.987Z,4.37
2019-01-17T19:20:20.906Z,7.33
2019-01-17T19:22:49.807Z,3.03
2019-01-17T19:25:18.791Z,10.73
2019-01-17T19:27:47.601Z,11.57
2019-01-17T19:30:27.005Z,3.63
2019-01-17T19:32:56.225Z,5.50
2019-01-17T19:35:25.186Z,4.83
2019-01-17T19:37:54.407Z,5.27
2019-01-17T19:40:24.993Z,5.43
2019-01-17T19:42:54.245Z,5.90
2019-01-17T19:45:22.977Z,4.27
2019-01-17T19:47:51.883Z,2.40
2019-01-17T19:50:23.530Z,3.50
2019-01-17T19:52:52.533Z,4.33
2019-01-17T19:55:21.602Z,8.27
2019-01-17T19:57:50.431Z,6.83
2019-01-17T20:00:19.605Z,3.90
2019-01-17T20:02:48.535Z,3.00
2019-01-17T20:05:18.365Z,3.30
2019-01-17T20:07:47.283Z,2.70
2019-01-17T20:10:21.585Z,3.23
2019-01-17T20:12:50.666Z,7.23
2019-01-17T20:15:21.241Z,6.03
2019-01-17T20:17:50.430Z,7.97
2019-01-17T20:20:19.419Z,6.63
2019-01-17T20:22:48.559Z,8.90
2019-01-17T20:25:17.819Z,5.53
2019-01-17T20:27:46.971Z,11.70
2019-01-17T20:30:20.866Z,10.73
2019-01-17T20:32:49.708Z,15.00
2019-01-17T20:35:18.586Z,7.10
2019-01-17T20:37:47.446Z,5.50
2019-01-17T20:40:19.127Z,4.07
2019-01-17T20:42:48.199Z,6.23
2019-01-17T20:45:17.136Z,7.73
2019-01-17T20:47:46.153Z,12.60
2019-01-17T20:50:17.465Z,2.80
2019-01-17T20:52:46.213Z,6.17
2019-01-17T20:55:15.365Z,5.13
2019-01-17T20:57:45.626Z,4.33
2019-01-17T21:00:41.213Z,3.43
2019-01-17T21:03:11.650Z,10.80
2019-01-17T21:05:40.483Z,6.00
2019-01-17T21:08:09.306Z,4.73
2019-01-17T21:10:38.319Z,4.50
2019-01-17T21:13:07.398Z,7.90
2019-01-17T21:15:36.211Z,4.87
2019-01-17T21:18:05.229Z,11.30
2019-01-17T21:20:33.961Z,6.30
2019-01-17T21:23:02.798Z,5.40
2019-01-17T21:25:31.543Z,6.20
2019-01-17T21:28:00.294Z,6.90
2019-01-17T21:30:29.270Z,9.60
2019-01-17T21:32:58.022Z,7.47
2019-01-17T21:35:27.099Z,6.47
2019-01-17T21:37:55.923Z,5.87
2019-01-17T21:40:24.946Z,9.10
2019-01-17T21:42:53.985Z,13.23
2019-01-17T21:45:22.781Z,7.00
2019-01-17T21:47:51.937Z,8.30
2019-01-17T21:50:23.274Z,5.43
2019-01-17T21:52:52.227Z,9.00
2019-01-17T21:55:21.288Z,5.47
2019-01-17T21:57:50.051Z,6.60
2019-01-17T22:00:20.821Z,7.00
2019-01-17T22:02:49.653Z,6.53
2019-01-17T22:05:18.872Z,8.37
2019-01-17T22:07:47.862Z,6.43
2019-01-17T22:10:17.881Z,6.50
2019-01-17T22:12:47.133Z,9.53
2019-01-17T22:15:18.109Z,5.20
2019-01-17T22:17:47.510Z,8.73
2019-01-17T22:20:16.839Z,9.90
2019-01-17T22:22:45.927Z,11.20
2019-01-17T22:25:15.505Z,8.33
2019-01-17T22:27:44.238Z,8.77
2019-01-17T22:30:18.265Z,3.47
2019-01-17T22:32:47.351Z,7.93
2019-01-17T22:35:16.191Z,6.20
2019-01-17T22:37:45.322Z,4.20
2019-01-17T22:40:14.816Z,3.30
2019-01-17T22:42:43.755Z,8.23
2019-01-17T22:45:15.151Z,5.90
2019-01-17T22:47:43.882Z,5.60
2019-01-17T22:50:14.157Z,9.10
2019-01-17T22:52:42.919Z,6.30
2019-01-17T22:55:12.064Z,6.40
2019-01-17T22:57:41.039Z,4.60
2019-01-17T23:00:56.648Z,8.07
2019-01-17T23:03:34.737Z,6.53
2019-01-17T23:06:04.167Z,9.60
2019-01-17T23:08:33.004Z,6.40
2019-01-17T23:11:01.734Z,5.60
2019-01-17T23:13:30.486Z,6.10
2019-01-17T23:15:59.416Z,4.57
2019-01-17T23:18:28.475Z,4.20
2019-01-17T23:20:57.458Z,8.30
2019-01-17T23:23:26.468Z,6.93
2019-01-17T23:25:55.498Z,5.93
2019-01-17T23:28:24.238Z,3.80
2019-01-17T23:30:53.336Z,4.93
2019-01-17T23:33:22.078Z,7.57
2019-01-17T23:35:51.110Z,7.23
2019-01-17T23:38:19.862Z,16.80
2019-01-17T23:40:48.850Z,7.73
2019-01-17T23:43:17.595Z,5.03
2019-01-17T23:45:46.351Z,14.67
2019-01-17T23:48:15.159Z,11.70
2019-01-17T23:50:43.913Z,9.30
2019-01-17T23:53:12.935Z,6.63
2019-01-17T23:55:41.764Z,11.73
2019-01-17T23:58:10.518Z,7.00
